createdAt,value
2022-07-28T00:07:30.429Z,0.00
2022-07-28T00:18:32.176Z,0.00
2022-07-28T00:29:49.274Z,0.00
2022-07-28T00:40:35.689Z,0.00
2022-07-28T00:51:37.451Z,0.00
2022-07-28T01:02:39.355Z,0.00
2022-07-28T01:13:40.943Z,0.00
2022-07-28T01:24:42.720Z,0.00
2022-07-28T01:35:44.478Z,0.00
2022-07-28T01:46:46.366Z,0.00
2022-07-28T01:57:48.014Z,0.00
2022-07-28T02:08:49.761Z,0.00
2022-07-28T02:19:51.539Z,0.00
2022-07-28T02:30:53.390Z,0.00
2022-07-28T02:41:55.040Z,0.00
2022-07-28T02:52:56.819Z,0.00
2022-07-28T03:03:58.586Z,0.00
2022-07-28T03:15:00.373Z,0.00
2022-07-28T03:26:02.121Z,0.00
2022-07-28T03:37:03.863Z,0.00
2022-07-28T03:48:05.616Z,0.00
2022-07-28T03:59:07.381Z,0.00
2022-07-28T04:10:09.154Z,0.00
2022-07-28T04:21:10.924Z,0.00
2022-07-28T04:32:12.700Z,0.00
2022-07-28T04:43:14.461Z,0.00
2022-07-28T04:54:16.816Z,0.00
2022-07-28T05:05:18.180Z,0.00
2022-07-28T05:16:19.874Z,0.00
2022-07-28T05:27:21.486Z,0.00
2022-07-28T05:38:23.234Z,0.00
2022-07-28T05:49:25.088Z,0.00
2022-07-28T06:00:26.772Z,0.00
2022-07-28T06:11:28.518Z,0.00
2022-07-28T06:18:50.218Z,2.53
2022-07-28T06:22:31.839Z,2.09
2022-07-28T06:33:33.597Z,0.00
2022-07-28T06:44:57.468Z,3.43
2022-07-28T06:48:17.128Z,3.61
2022-07-28T06:51:58.716Z,2.29
2022-07-28T06:55:41.295Z,2.48
2022-07-28T07:06:42.097Z,3.02
2022-07-28T07:14:03.933Z,3.23
2022-07-28T07:17:45.527Z,2.16
2022-07-28T07:21:27.164Z,2.48
2022-07-28T07:28:48.880Z,5.40
2022-07-28T07:32:30.519Z,4.74
2022-07-28T07:36:12.360Z,3.99
2022-07-28T07:39:53.946Z,2.22
2022-07-28T07:43:35.645Z,3.05
2022-07-28T07:47:17.386Z,3.81
2022-07-28T07:50:59.080Z,3.41
2022-07-28T07:54:40.713Z,3.10
2022-07-28T07:58:22.392Z,3.86
2022-07-28T08:02:04.115Z,2.09
2022-07-28T08:05:45.647Z,3.08
2022-07-28T08:09:27.252Z,3.06
2022-07-28T08:13:08.890Z,2.28
2022-07-28T08:16:50.630Z,3.18
2022-07-28T08:20:32.290Z,3.69
2022-07-28T08:24:33.719Z,3.33
2022-07-28T08:27:55.736Z,3.40
2022-07-28T08:31:37.489Z,4.86
2022-07-28T08:35:32.901Z,2.91
2022-07-28T08:39:00.777Z,4.13
2022-07-28T08:42:42.482Z,3.83
2022-07-28T08:46:24.287Z,3.05
2022-07-28T08:50:05.909Z,4.79
2022-07-28T08:53:47.711Z,4.65
2022-07-28T08:57:29.566Z,4.14
2022-07-28T09:01:11.380Z,4.00
2022-07-28T09:04:52.920Z,3.90
2022-07-28T09:08:34.716Z,4.74
2022-07-28T09:12:16.504Z,4.05
2022-07-28T09:15:58.384Z,5.22
2022-07-28T09:19:40.182Z,5.32
2022-07-28T09:23:41.892Z,4.55
2022-07-28T09:27:03.744Z,4.85
2022-07-28T09:30:54.061Z,5.38
2022-07-28T09:34:27.424Z,4.11
2022-07-28T09:38:09.148Z,3.62
2022-07-28T09:41:51.028Z,5.71
2022-07-28T09:45:32.806Z,5.37
2022-07-28T09:49:14.799Z,4.80
2022-07-28T09:52:56.496Z,5.63
2022-07-28T09:56:38.279Z,5.44
2022-07-28T10:00:20.148Z,5.76
2022-07-28T10:04:02.586Z,3.71
2022-07-28T10:07:43.572Z,5.18
2022-07-28T10:11:25.382Z,5.77
2022-07-28T10:15:07.155Z,4.97
2022-07-28T10:18:48.898Z,3.88
2022-07-28T10:22:30.747Z,5.34
2022-07-28T10:26:12.958Z,4.27
2022-07-28T10:29:54.310Z,5.06
2022-07-28T10:33:36.151Z,5.28
2022-07-28T10:37:17.928Z,4.37
2022-07-28T10:40:59.731Z,5.31
2022-07-28T10:44:41.584Z,7.65
2022-07-28T10:48:23.974Z,4.41
2022-07-28T10:52:15.478Z,4.24
2022-07-28T10:55:46.957Z,6.48
2022-07-28T10:59:29.046Z,7.06
2022-07-28T11:03:13.596Z,6.00
2022-07-28T11:06:52.349Z,7.03
2022-07-28T11:10:34.190Z,4.71
2022-07-28T11:14:16.722Z,5.30
2022-07-28T11:17:57.999Z,6.39
2022-07-28T11:21:43.502Z,6.44
2022-07-28T11:25:22.962Z,7.07
2022-07-28T11:29:03.612Z,6.04
2022-07-28T11:32:45.407Z,5.15
2022-07-28T11:36:27.166Z,3.90
2022-07-28T11:40:09.012Z,5.54
2022-07-28T11:43:50.898Z,5.09
2022-07-28T11:47:32.727Z,5.26
2022-07-28T11:51:14.626Z,5.08
2022-07-28T11:54:56.468Z,6.59
2022-07-28T11:58:38.408Z,6.06
2022-07-28T12:02:20.420Z,5.12
2022-07-28T12:06:02.140Z,4.77
2022-07-28T12:09:43.996Z,4.57
2022-07-28T12:13:25.683Z,4.08
2022-07-28T12:17:07.458Z,4.35
2022-07-28T12:20:49.154Z,4.68
2022-07-28T12:24:31.067Z,5.74
2022-07-28T12:28:12.906Z,6.26
2022-07-28T12:31:54.765Z,3.97
2022-07-28T12:35:36.389Z,4.36
2022-07-28T12:39:18.107Z,5.33
2022-07-28T12:42:59.809Z,3.82
2022-07-28T12:46:41.620Z,4.95
2022-07-28T12:50:23.430Z,4.66
2022-07-28T12:54:05.281Z,5.50
2022-07-28T12:57:50.530Z,5.16
2022-07-28T13:01:29.167Z,5.50
2022-07-28T13:05:10.942Z,5.69
2022-07-28T13:08:52.773Z,5.31
2022-07-28T13:12:34.661Z,4.83
2022-07-28T13:16:16.557Z,4.46
2022-07-28T13:19:58.276Z,5.28
2022-07-28T13:23:40.027Z,4.29
2022-07-28T13:27:21.818Z,5.85
2022-07-28T13:31:03.693Z,5.98
2022-07-28T13:34:45.418Z,4.49
2022-07-28T13:38:27.303Z,5.83
2022-07-28T13:42:10.379Z,6.78
2022-07-28T13:45:50.898Z,5.15
2022-07-28T13:49:32.637Z,3.94
2022-07-28T13:53:14.415Z,5.32
2022-07-28T13:56:56.177Z,4.66
2022-07-28T14:00:38.007Z,2.61
2022-07-28T14:04:21.644Z,5.69
2022-07-28T14:08:01.617Z,5.03
2022-07-28T14:11:50.086Z,4.81
2022-07-28T14:15:25.264Z,4.75
2022-07-28T14:19:07.111Z,4.34
2022-07-28T14:22:48.746Z,4.06
2022-07-28T14:26:35.844Z,4.90
2022-07-28T14:30:12.305Z,4.80
2022-07-28T14:33:55.023Z,6.45
2022-07-28T14:38:04.853Z,4.57
2022-07-28T14:41:17.704Z,3.48
2022-07-28T14:44:59.448Z,3.69
2022-07-28T14:48:41.343Z,4.73
2022-07-28T14:52:23.107Z,5.33
2022-07-28T14:56:04.797Z,4.45
2022-07-28T14:59:46.499Z,3.67
2022-07-28T15:03:31.742Z,3.60
2022-07-28T15:07:09.962Z,3.07
2022-07-28T15:10:51.779Z,4.57
2022-07-28T15:14:33.529Z,3.66
2022-07-28T15:18:15.240Z,4.25
2022-07-28T15:21:57.012Z,4.03
2022-07-28T15:25:38.762Z,5.53
2022-07-28T15:29:20.409Z,2.23
2022-07-28T15:33:02.086Z,2.91
2022-07-28T15:36:43.747Z,2.93
2022-07-28T15:40:25.546Z,4.15
2022-07-28T15:44:07.275Z,3.05
2022-07-28T15:47:49.074Z,4.52
2022-07-28T15:51:30.731Z,3.40
2022-07-28T15:55:12.373Z,3.14
2022-07-28T15:58:53.973Z,2.67
2022-07-28T16:02:35.684Z,4.73
2022-07-28T16:06:17.273Z,4.68
2022-07-28T16:09:59.001Z,3.25
2022-07-28T16:13:40.645Z,3.58
2022-07-28T16:17:22.414Z,3.59
2022-07-28T16:21:04.133Z,2.66
2022-07-28T16:24:45.782Z,2.74
2022-07-28T16:28:27.526Z,4.14
2022-07-28T16:32:09.220Z,2.99
2022-07-28T16:35:52.257Z,3.47
2022-07-28T16:39:32.585Z,2.36
2022-07-28T16:43:14.301Z,3.32
2022-07-28T16:46:56.135Z,3.03
2022-07-28T16:50:37.587Z,2.22
2022-07-28T16:54:19.719Z,3.10
2022-07-28T16:58:00.810Z,2.50
2022-07-28T17:05:22.488Z,2.19
2022-07-28T17:16:24.336Z,0.00
2022-07-28T17:27:37.644Z,0.00
2022-07-28T17:38:32.791Z,0.00
2022-07-28T17:49:29.631Z,0.00
2022-07-28T18:00:31.339Z,0.00
2022-07-28T18:11:33.104Z,0.00
2022-07-28T18:22:34.901Z,4.91
2022-07-28T18:26:16.801Z,8.80
2022-07-28T18:29:58.781Z,11.28
2022-07-28T18:33:40.769Z,8.92
2022-07-28T18:37:22.767Z,12.78
2022-07-28T18:41:04.764Z,13.77
2022-07-28T18:44:46.779Z,10.80
2022-07-28T18:48:28.708Z,7.37
2022-07-28T18:52:10.602Z,6.64
2022-07-28T18:55:52.386Z,4.52
2022-07-28T18:59:34.045Z,3.33
2022-07-28T19:10:35.826Z,0.00
2022-07-28T19:21:37.581Z,2.87
2022-07-28T19:25:19.479Z,6.83
2022-07-28T19:29:01.134Z,5.35
2022-07-28T19:32:42.822Z,3.28
2022-07-28T19:36:24.496Z,3.82
2022-07-28T19:40:06.113Z,3.06
2022-07-28T19:43:47.866Z,4.58
2022-07-28T19:47:29.580Z,3.41
2022-07-28T19:51:11.354Z,3.69
2022-07-28T19:54:52.976Z,2.69
2022-07-28T19:58:34.678Z,5.68
2022-07-28T20:02:16.764Z,5.54
2022-07-28T20:05:58.366Z,4.77
2022-07-28T20:09:40.106Z,7.11
2022-07-28T20:13:21.714Z,3.30
2022-07-28T20:17:03.510Z,4.16
2022-07-28T20:20:45.250Z,6.30
2022-07-28T20:24:26.979Z,5.30
2022-07-28T20:28:08.815Z,6.68
2022-07-28T20:31:50.488Z,3.18
2022-07-28T20:35:32.138Z,3.08
2022-07-28T20:39:42.287Z,2.09
2022-07-28T20:42:55.385Z,2.58
2022-07-28T20:46:37.063Z,3.45
2022-07-28T20:50:18.699Z,2.86
2022-07-28T20:54:00.307Z,3.82
2022-07-28T20:57:41.922Z,3.76
2022-07-28T21:01:23.705Z,5.11
2022-07-28T21:05:05.159Z,4.15
2022-07-28T21:08:46.979Z,2.97
2022-07-28T21:12:28.638Z,4.86
2022-07-28T21:16:10.299Z,3.38
2022-07-28T21:27:12.050Z,4.37
2022-07-28T21:30:53.792Z,4.31
2022-07-28T21:34:35.527Z,4.35
2022-07-28T21:38:17.341Z,4.49
2022-07-28T21:41:59.045Z,3.01
2022-07-28T21:45:40.719Z,3.47
2022-07-28T21:49:22.505Z,3.75
2022-07-28T21:53:04.131Z,2.81
2022-07-28T21:56:45.788Z,3.93
2022-07-28T22:00:27.497Z,2.60
2022-07-28T22:11:29.317Z,0.00
2022-07-28T22:22:31.087Z,3.72
2022-07-28T22:26:12.670Z,2.99
2022-07-28T22:37:14.425Z,0.00
2022-07-28T22:48:16.224Z,0.00
2022-07-28T22:59:18.001Z,0.00
2022-07-28T23:10:19.730Z,0.00
2022-07-28T23:14:01.329Z,2.48
2022-07-28T23:25:03.087Z,0.00
2022-07-28T23:36:04.834Z,0.00
2022-07-28T23:39:46.443Z,3.37
2022-07-28T23:43:28.053Z,4.48
2022-07-28T23:47:09.737Z,2.38
2022-07-28T23:58:11.383Z,2.67
